sensor_id;sensor_type;location;lat;lon;timestamp;temperature;humidity
21298;DHT22;10808;48.010;11.326;2023-04-01T00:01:23;7.80;99.90
21298;DHT22;10808;48.010;11.326;2023-04-01T00:03:49;7.70;99.90
21298;DHT22;10808;48.010;11.326;2023-04-01T00:06:17;7.70;99.90
21298;DHT22;10808;48.010;11.326;2023-04-01T00:08:53;7.70;99.90
21298;DHT22;10808;48.010;11.326;2023-04-01T00:11:34;7.70;99.90
21298;DHT22;10808;48.010;11.326;2023-04-01T00:14:00;7.70;99.90
21298;DHT22;10808;48.010;11.326;2023-04-01T00:16:30;7.70;99.90
21298;DHT22;10808;48.010;11.326;2023-04-01T00:18:59;7.60;99.90
21298;DHT22;10808;48.010;11.326;2023-04-01T00:21:25;7.60;99.90
21298;DHT22;10808;48.010;11.326;2023-04-01T00:23:52;7.60;99.90
21298;DHT22;10808;48.010;11.326;2023-04-01T00:26:18;7.60;99.90
21298;DHT22;10808;48.010;11.326;2023-04-01T00:28:57;7.60;99.90
21298;DHT22;10808;48.010;11.326;2023-04-01T00:31:34;7.60;99.90
21298;DHT22;10808;48.010;11.326;2023-04-01T00:34:00;7.60;99.90
21298;DHT22;10808;48.010;11.326;2023-04-01T00:36:26;7.60;99.90
21298;DHT22;10808;48.010;11.326;2023-04-01T00:38:52;7.60;99.90
21298;DHT22;10808;48.010;11.326;2023-04-01T00:41:19;7.50;99.90
21298;DHT22;10808;48.010;11.326;2023-04-01T00:43:49;7.50;99.90
21298;DHT22;10808;48.010;11.326;2023-04-01T00:46:15;7.60;99.90
21298;DHT22;10808;48.010;11.326;2023-04-01T00:48:56;7.60;99.90
21298;DHT22;10808;48.010;11.326;2023-04-01T00:51:25;7.60;99.90
21298;DHT22;10808;48.010;11.326;2023-04-01T00:53:53;7.60;99.90
21298;DHT22;10808;48.010;11.326;2023-04-01T00:56:34;7.70;99.90
21298;DHT22;10808;48.010;11.326;2023-04-01T00:59:04;7.60;99.90
21298;DHT22;10808;48.010;11.326;2023-04-01T01:01:35;7.70;99.90
21298;DHT22;10808;48.010;11.326;2023-04-01T01:04:01;7.70;99.90
21298;DHT22;10808;48.010;11.326;2023-04-01T01:06:51;7.80;99.90
21298;DHT22;10808;48.010;11.326;2023-04-01T01:12:37;7.80;99.90
21298;DHT22;10808;48.010;11.326;2023-04-01T01:17:58;7.90;99.90
21298;DHT22;10808;48.010;11.326;2023-04-01T01:35:12;7.90;99.90
21298;DHT22;10808;48.010;11.326;2023-04-01T01:37:58;7.90;99.90
21298;DHT22;10808;48.010;11.326;2023-04-01T01:40:32;7.90;99.90
21298;DHT22;10808;48.010;11.326;2023-04-01T01:43:05;7.90;99.90
21298;DHT22;10808;48.010;11.326;2023-04-01T01:45:34;7.90;99.90
21298;DHT22;10808;48.010;11.326;2023-04-01T01:48:04;7.90;99.90
21298;DHT22;10808;48.010;11.326;2023-04-01T01:50:34;7.90;99.90
21298;DHT22;10808;48.010;11.326;2023-04-01T01:53:10;8.00;99.90
21298;DHT22;10808;48.010;11.326;2023-04-01T01:55:40;8.00;99.90
21298;DHT22;10808;48.010;11.326;2023-04-01T02:01:07;8.00;99.90
21298;DHT22;10808;48.010;11.326;2023-04-01T02:03:36;8.00;99.90
21298;DHT22;10808;48.010;11.326;2023-04-01T02:06:07;7.90;99.90
21298;DHT22;10808;48.010;11.326;2023-04-01T02:08:44;7.90;99.90
21298;DHT22;10808;48.010;11.326;2023-04-01T02:11:13;7.90;99.90
21298;DHT22;10808;48.010;11.326;2023-04-01T02:14:01;7.90;99.90
21298;DHT22;10808;48.010;11.326;2023-04-01T02:19:04;7.90;99.90
21298;DHT22;10808;48.010;11.326;2023-04-01T02:21:33;7.90;99.90
21298;DHT22;10808;48.010;11.326;2023-04-01T02:24:06;7.90;99.90
21298;DHT22;10808;48.010;11.326;2023-04-01T02:26:34;7.90;99.90
21298;DHT22;10808;48.010;11.326;2023-04-01T02:29:01;7.90;99.90
21298;DHT22;10808;48.010;11.326;2023-04-01T02:31:49;7.90;99.90
21298;DHT22;10808;48.010;11.326;2023-04-01T02:34:28;7.90;99.90
21298;DHT22;10808;48.010;11.326;2023-04-01T02:36:55;7.90;99.90
21298;DHT22;10808;48.010;11.326;2023-04-01T02:39:23;7.90;99.90
21298;DHT22;10808;48.010;11.326;2023-04-01T02:41:51;7.90;99.90
21298;DHT22;10808;48.010;11.326;2023-04-01T02:44:22;7.90;99.90
21298;DHT22;10808;48.010;11.326;2023-04-01T02:46:51;7.90;99.90
21298;DHT22;10808;48.010;11.326;2023-04-01T02:49:22;7.90;99.90
21298;DHT22;10808;48.010;11.326;2023-04-01T02:51:49;7.90;99.90
21298;DHT22;10808;48.010;11.326;2023-04-01T02:54:15;7.90;99.90
21298;DHT22;10808;48.010;11.326;2023-04-01T02:56:41;7.90;99.90
21298;DHT22;10808;48.010;11.326;2023-04-01T02:59:13;7.80;99.90
21298;DHT22;10808;48.010;11.326;2023-04-01T03:01:52;7.90;99.90
21298;DHT22;10808;48.010;11.326;2023-04-01T03:04:19;7.80;99.90
21298;DHT22;10808;48.010;11.326;2023-04-01T03:06:45;7.80;99.90
21298;DHT22;10808;48.010;11.326;2023-04-01T03:09:11;7.80;99.90
21298;DHT22;10808;48.010;11.326;2023-04-01T03:11:38;7.80;99.90
21298;DHT22;10808;48.010;11.326;2023-04-01T03:14:06;7.70;99.90
21298;DHT22;10808;48.010;11.326;2023-04-01T03:16:32;7.70;99.90
21298;DHT22;10808;48.010;11.326;2023-04-01T03:18:58;7.70;99.90
21298;DHT22;10808;48.010;11.326;2023-04-01T03:21:27;7.70;99.90
21298;DHT22;10808;48.010;11.326;2023-04-01T03:23:55;7.70;99.90
21298;DHT22;10808;48.010;11.326;2023-04-01T03:26:22;7.70;99.90
21298;DHT22;10808;48.010;11.326;2023-04-01T03:28:49;7.60;99.90
21298;DHT22;10808;48.010;11.326;2023-04-01T03:31:15;7.60;99.90
21298;DHT22;10808;48.010;11.326;2023-04-01T03:33:42;7.60;99.90
21298;DHT22;10808;48.010;11.326;2023-04-01T03:36:08;7.60;99.90
21298;DHT22;10808;48.010;11.326;2023-04-01T03:38:35;7.60;99.90
21298;DHT22;10808;48.010;11.326;2023-04-01T03:41:01;7.50;99.90
21298;DHT22;10808;48.010;11.326;2023-04-01T03:43:28;7.50;99.90
21298;DHT22;10808;48.010;11.326;2023-04-01T03:45:55;7.50;99.90
21298;DHT22;10808;48.010;11.326;2023-04-01T03:48:23;7.50;99.90
21298;DHT22;10808;48.010;11.326;2023-04-01T03:50:49;7.50;99.90
21298;DHT22;10808;48.010;11.326;2023-04-01T03:53:15;7.40;99.90
21298;DHT22;10808;48.010;11.326;2023-04-01T03:55:50;7.40;99.90
21298;DHT22;10808;48.010;11.326;2023-04-01T03:58:17;7.40;99.90
21298;DHT22;10808;48.010;11.326;2023-04-01T04:00:43;7.40;99.90
21298;DHT22;10808;48.010;11.326;2023-04-01T04:03:09;7.40;99.90
21298;DHT22;10808;48.010;11.326;2023-04-01T04:05:35;7.50;99.90
21298;DHT22;10808;48.010;11.326;2023-04-01T04:08:02;7.50;99.90
21298;DHT22;10808;48.010;11.326;2023-04-01T04:10:34;7.50;99.90
21298;DHT22;10808;48.010;11.326;2023-04-01T04:13:03;7.50;99.90
21298;DHT22;10808;48.010;11.326;2023-04-01T04:15:35;7.50;99.90
21298;DHT22;10808;48.010;11.326;2023-04-01T04:18:01;7.50;99.90
21298;DHT22;10808;48.010;11.326;2023-04-01T04:20:27;7.60;99.90
21298;DHT22;10808;48.010;11.326;2023-04-01T04:22:53;7.60;99.90
21298;DHT22;10808;48.010;11.326;2023-04-01T04:25:19;7.60;99.90
21298;DHT22;10808;48.010;11.326;2023-04-01T04:27:50;7.60;99.90
21298;DHT22;10808;48.010;11.326;2023-04-01T04:30:16;7.60;99.90
21298;DHT22;10808;48.010;11.326;2023-04-01T04:32:44;7.60;99.90
21298;DHT22;10808;48.010;11.326;2023-04-01T04:35:10;7.60;99.90
21298;DHT22;10808;48.010;11.326;2023-04-01T04:37:36;7.70;99.90
21298;DHT22;10808;48.010;11.326;2023-04-01T04:40:03;7.70;99.90
21298;DHT22;10808;48.010;11.326;2023-04-01T04:42:35;7.70;99.90
21298;DHT22;10808;48.010;11.326;2023-04-01T04:45:01;7.70;99.90
21298;DHT22;10808;48.010;11.326;2023-04-01T04:47:27;7.70;99.90
21298;DHT22;10808;48.010;11.326;2023-04-01T04:49:55;7.70;99.90
21298;DHT22;10808;48.010;11.326;2023-04-01T04:52:21;7.80;99.90
21298;DHT22;10808;48.010;11.326;2023-04-01T04:54:48;7.80;99.90
21298;DHT22;10808;48.010;11.326;2023-04-01T04:57:17;7.80;99.90
21298;DHT22;10808;48.010;11.326;2023-04-01T04:59:43;7.80;99.90
21298;DHT22;10808;48.010;11.326;2023-04-01T05:02:09;7.80;99.90
21298;DHT22;10808;48.010;11.326;2023-04-01T05:04:36;7.80;99.90
21298;DHT22;10808;48.010;11.326;2023-04-01T05:07:02;7.80;99.90
21298;DHT22;10808;48.010;11.326;2023-04-01T05:09:28;7.80;99.90
21298;DHT22;10808;48.010;11.326;2023-04-01T05:11:57;7.80;99.90
21298;DHT22;10808;48.010;11.326;2023-04-01T05:14:25;7.90;99.90
21298;DHT22;10808;48.010;11.326;2023-04-01T05:17:01;7.80;99.90
21298;DHT22;10808;48.010;11.326;2023-04-01T05:19:27;7.90;99.90
21298;DHT22;10808;48.010;11.326;2023-04-01T05:21:53;7.90;99.90
21298;DHT22;10808;48.010;11.326;2023-04-01T05:24:19;7.90;99.90
21298;DHT22;10808;48.010;11.326;2023-04-01T05:26:48;7.90;99.90
21298;DHT22;10808;48.010;11.326;2023-04-01T05:29:14;7.90;99.90
21298;DHT22;10808;48.010;11.326;2023-04-01T05:31:40;8.00;99.90
21298;DHT22;10808;48.010;11.326;2023-04-01T05:34:12;7.90;99.90
21298;DHT22;10808;48.010;11.326;2023-04-01T05:36:40;8.00;99.90
21298;DHT22;10808;48.010;11.326;2023-04-01T05:39:07;8.00;99.90
21298;DHT22;10808;48.010;11.326;2023-04-01T05:41:37;8.00;99.90
21298;DHT22;10808;48.010;11.326;2023-04-01T05:44:04;8.00;99.90
21298;DHT22;10808;48.010;11.326;2023-04-01T05:46:31;8.00;99.90
21298;DHT22;10808;48.010;11.326;2023-04-01T05:48:57;8.00;99.90
21298;DHT22;10808;48.010;11.326;2023-04-01T05:51:23;8.00;99.90
21298;DHT22;10808;48.010;11.326;2023-04-01T05:53:50;8.00;99.90
21298;DHT22;10808;48.010;11.326;2023-04-01T05:56:16;8.00;99.90
21298;DHT22;10808;48.010;11.326;2023-04-01T05:58:42;8.00;99.90
21298;DHT22;10808;48.010;11.326;2023-04-01T06:01:10;8.00;99.90
21298;DHT22;10808;48.010;11.326;2023-04-01T06:03:37;8.10;99.90
21298;DHT22;10808;48.010;11.326;2023-04-01T06:06:03;8.10;99.90
21298;DHT22;10808;48.010;11.326;2023-04-01T06:08:35;8.10;99.90
21298;DHT22;10808;48.010;11.326;2023-04-01T06:13:58;8.10;99.90
21298;DHT22;10808;48.010;11.326;2023-04-01T06:27:23;8.30;99.90
21298;DHT22;10808;48.010;11.326;2023-04-01T06:30:02;8.40;99.90
21298;DHT22;10808;48.010;11.326;2023-04-01T06:35:53;8.50;99.90
21298;DHT22;10808;48.010;11.326;2023-04-01T06:52:55;8.80;99.90
21298;DHT22;10808;48.010;11.326;2023-04-01T06:55:59;8.90;99.90
21298;DHT22;10808;48.010;11.326;2023-04-01T06:58:36;9.00;99.90
21298;DHT22;10808;48.010;11.326;2023-04-01T07:01:32;9.10;99.90
21298;DHT22;10808;48.010;11.326;2023-04-01T07:04:14;9.10;99.90
21298;DHT22;10808;48.010;11.326;2023-04-01T07:07:05;9.10;99.90
21298;DHT22;10808;48.010;11.326;2023-04-01T07:09:38;9.10;99.90
21298;DHT22;10808;48.010;11.326;2023-04-01T07:12:19;9.20;99.90
21298;DHT22;10808;48.010;11.326;2023-04-01T07:14:48;9.20;99.90
21298;DHT22;10808;48.010;11.326;2023-04-01T07:17:19;9.30;99.90
21298;DHT22;10808;48.010;11.326;2023-04-01T07:20:02;9.40;99.90
21298;DHT22;10808;48.010;11.326;2023-04-01T07:22:35;9.40;99.90
21298;DHT22;10808;48.010;11.326;2023-04-01T07:25:11;9.40;99.90
21298;DHT22;10808;48.010;11.326;2023-04-01T07:27:37;9.40;99.90
21298;DHT22;10808;48.010;11.326;2023-04-01T07:30:06;9.60;99.90
21298;DHT22;10808;48.010;11.326;2023-04-01T07:32:44;9.60;99.90
21298;DHT22;10808;48.010;11.326;2023-04-01T07:35:19;9.70;99.90
21298;DHT22;10808;48.010;11.326;2023-04-01T07:43:33;9.80;99.90
21298;DHT22;10808;48.010;11.326;2023-04-01T07:49:16;9.90;99.90
21298;DHT22;10808;48.010;11.326;2023-04-01T07:52:00;10.00;99.90
21298;DHT22;10808;48.010;11.326;2023-04-01T07:57:07;10.20;99.90
21298;DHT22;10808;48.010;11.326;2023-04-01T08:00:05;10.30;99.90
21298;DHT22;10808;48.010;11.326;2023-04-01T08:02:44;10.30;99.90
21298;DHT22;10808;48.010;11.326;2023-04-01T08:08:41;10.30;99.90
21298;DHT22;10808;48.010;11.326;2023-04-01T08:11:13;10.40;99.90
21298;DHT22;10808;48.010;11.326;2023-04-01T08:14:03;10.40;99.90
21298;DHT22;10808;48.010;11.326;2023-04-01T08:16:46;10.50;99.90
21298;DHT22;10808;48.010;11.326;2023-04-01T08:19:43;10.60;99.90
21298;DHT22;10808;48.010;11.326;2023-04-01T08:22:30;10.70;99.90
21298;DHT22;10808;48.010;11.326;2023-04-01T08:25:02;10.80;99.90
21298;DHT22;10808;48.010;11.326;2023-04-01T08:27:46;10.90;99.90
21298;DHT22;10808;48.010;11.326;2023-04-01T08:32:56;11.00;99.90
21298;DHT22;10808;48.010;11.326;2023-04-01T08:35:34;10.90;99.90
21298;DHT22;10808;48.010;11.326;2023-04-01T08:38:12;10.90;99.90
21298;DHT22;10808;48.010;11.326;2023-04-01T08:43:39;11.10;99.90
21298;DHT22;10808;48.010;11.326;2023-04-01T08:46:26;11.40;99.90
21298;DHT22;10808;48.010;11.326;2023-04-01T09:00:05;12.20;99.90
21298;DHT22;10808;48.010;11.326;2023-04-01T09:05:37;12.50;99.40
21298;DHT22;10808;48.010;11.326;2023-04-01T09:14:13;12.80;98.50
21298;DHT22;10808;48.010;11.326;2023-04-01T09:17:23;12.60;98.40
21298;DHT22;10808;48.010;11.326;2023-04-01T09:25:45;12.80;98.40
21298;DHT22;10808;48.010;11.326;2023-04-01T09:28:33;12.90;98.40
21298;DHT22;10808;48.010;11.326;2023-04-01T09:34:20;13.20;98.30
21298;DHT22;10808;48.010;11.326;2023-04-01T09:44:59;13.40;97.20
21298;DHT22;10808;48.010;11.326;2023-04-01T10:07:04;13.10;96.50
21298;DHT22;10808;48.010;11.326;2023-04-01T10:10:06;13.00;96.60
21298;DHT22;10808;48.010;11.326;2023-04-01T10:15:50;12.90;97.10
21298;DHT22;10808;48.010;11.326;2023-04-01T10:21:54;12.70;97.00
21298;DHT22;10808;48.010;11.326;2023-04-01T10:35:44;12.50;97.60
21298;DHT22;10808;48.010;11.326;2023-04-01T10:38:37;12.40;97.50
21298;DHT22;10808;48.010;11.326;2023-04-01T10:50:16;11.90;98.40
21298;DHT22;10808;48.010;11.326;2023-04-01T10:53:07;11.70;98.60
21298;DHT22;10808;48.010;11.326;2023-04-01T10:55:46;11.70;99.10
21298;DHT22;10808;48.010;11.326;2023-04-01T11:01:16;11.60;99.90
21298;DHT22;10808;48.010;11.326;2023-04-01T11:04:14;11.60;99.90
21298;DHT22;10808;48.010;11.326;2023-04-01T11:07:20;11.50;99.90
21298;DHT22;10808;48.010;11.326;2023-04-01T11:10:10;11.40;99.90
21298;DHT22;10808;48.010;11.326;2023-04-01T11:27:46;11.10;99.90
21298;DHT22;10808;48.010;11.326;2023-04-01T11:33:26;11.00;99.90
21298;DHT22;10808;48.010;11.326;2023-04-01T11:36:33;10.90;99.90
21298;DHT22;10808;48.010;11.326;2023-04-01T11:41:49;10.60;99.90
21298;DHT22;10808;48.010;11.326;2023-04-01T11:44:26;10.50;99.90
21298;DHT22;10808;48.010;11.326;2023-04-01T11:55:38;9.90;99.90
21298;DHT22;10808;48.010;11.326;2023-04-01T12:04:00;9.90;99.90
21298;DHT22;10808;48.010;11.326;2023-04-01T12:09:43;9.80;99.90
21298;DHT22;10808;48.010;11.326;2023-04-01T12:15:47;9.80;99.90
21298;DHT22;10808;48.010;11.326;2023-04-01T12:18:27;9.70;99.90
21298;DHT22;10808;48.010;11.326;2023-04-01T12:21:17;9.70;99.90
21298;DHT22;10808;48.010;11.326;2023-04-01T12:37:56;9.40;99.90
21298;DHT22;10808;48.010;11.326;2023-04-01T12:46:12;9.50;99.90
21298;DHT22;10808;48.010;11.326;2023-04-01T12:57:32;9.30;99.90
21298;DHT22;10808;48.010;11.326;2023-04-01T13:11:55;9.40;99.90
21298;DHT22;10808;48.010;11.326;2023-04-01T13:14:16;9.40;99.90
21298;DHT22;10808;48.010;11.326;2023-04-01T13:19:40;9.40;99.90
21298;DHT22;10808;48.010;11.326;2023-04-01T13:22:36;9.40;99.90
21298;DHT22;10808;48.010;11.326;2023-04-01T13:28:07;9.30;99.90
21298;DHT22;10808;48.010;11.326;2023-04-01T13:31:00;9.30;99.90
21298;DHT22;10808;48.010;11.326;2023-04-01T13:41:43;9.20;99.90
21298;DHT22;10808;48.010;11.326;2023-04-01T13:44:28;9.20;99.90
21298;DHT22;10808;48.010;11.326;2023-04-01T13:49:59;9.20;99.90
21298;DHT22;10808;48.010;11.326;2023-04-01T13:58:38;9.20;99.90
21298;DHT22;10808;48.010;11.326;2023-04-01T14:01:23;9.20;99.90
21298;DHT22;10808;48.010;11.326;2023-04-01T14:04:27;9.20;99.90
21298;DHT22;10808;48.010;11.326;2023-04-01T14:07:38;9.20;99.90
21298;DHT22;10808;48.010;11.326;2023-04-01T14:18:42;9.30;99.90
21298;DHT22;10808;48.010;11.326;2023-04-01T14:24:22;9.40;99.90
21298;DHT22;10808;48.010;11.326;2023-04-01T14:38:04;9.60;99.90
21298;DHT22;10808;48.010;11.326;2023-04-01T14:40:55;9.60;99.90
21298;DHT22;10808;48.010;11.326;2023-04-01T14:43:41;9.60;99.90
21298;DHT22;10808;48.010;11.326;2023-04-01T14:46:32;9.60;99.90
21298;DHT22;10808;48.010;11.326;2023-04-01T14:49:20;9.60;99.90
21298;DHT22;10808;48.010;11.326;2023-04-01T14:51:48;9.50;99.90
21298;DHT22;10808;48.010;11.326;2023-04-01T14:54:17;9.50;99.90
21298;DHT22;10808;48.010;11.326;2023-04-01T14:56:51;9.60;99.90
21298;DHT22;10808;48.010;11.326;2023-04-01T15:09:58;9.80;99.90
21298;DHT22;10808;48.010;11.326;2023-04-01T15:12:58;9.90;99.90
21298;DHT22;10808;48.010;11.326;2023-04-01T15:15:57;10.00;99.90
21298;DHT22;10808;48.010;11.326;2023-04-01T15:24:46;10.00;99.90
21298;DHT22;10808;48.010;11.326;2023-04-01T15:27:25;10.00;99.90
21298;DHT22;10808;48.010;11.326;2023-04-01T15:30:17;9.90;99.90
21298;DHT22;10808;48.010;11.326;2023-04-01T15:33:14;9.90;99.90
21298;DHT22;10808;48.010;11.326;2023-04-01T15:41:51;10.10;99.90
21298;DHT22;10808;48.010;11.326;2023-04-01T15:47:39;10.10;99.90
21298;DHT22;10808;48.010;11.326;2023-04-01T15:53:01;10.10;99.90
21298;DHT22;10808;48.010;11.326;2023-04-01T16:20:22;10.00;99.90
21298;DHT22;10808;48.010;11.326;2023-04-01T16:22:57;10.00;99.90
21298;DHT22;10808;48.010;11.326;2023-04-01T16:25:39;10.00;99.90
21298;DHT22;10808;48.010;11.326;2023-04-01T16:31:26;9.90;99.90
21298;DHT22;10808;48.010;11.326;2023-04-01T16:37:00;9.90;99.90
21298;DHT22;10808;48.010;11.326;2023-04-01T16:50:44;9.80;99.90
21298;DHT22;10808;48.010;11.326;2023-04-01T16:55:49;9.80;99.90
21298;DHT22;10808;48.010;11.326;2023-04-01T16:58:25;9.80;99.90
21298;DHT22;10808;48.010;11.326;2023-04-01T17:01:05;9.70;99.90
21298;DHT22;10808;48.010;11.326;2023-04-01T17:03:40;9.70;99.90
21298;DHT22;10808;48.010;11.326;2023-04-01T17:06:41;9.70;99.90
21298;DHT22;10808;48.010;11.326;2023-04-01T17:14:36;9.70;99.90
21298;DHT22;10808;48.010;11.326;2023-04-01T17:17:51;9.70;99.90
21298;DHT22;10808;48.010;11.326;2023-04-01T17:20:14;9.70;99.90
21298;DHT22;10808;48.010;11.326;2023-04-01T17:23:01;9.70;99.90
21298;DHT22;10808;48.010;11.326;2023-04-01T17:25:34;9.70;99.90
21298;DHT22;10808;48.010;11.326;2023-04-01T17:33:47;9.70;99.90
21298;DHT22;10808;48.010;11.326;2023-04-01T17:42:04;9.60;99.90
21298;DHT22;10808;48.010;11.326;2023-04-01T17:47:23;9.60;99.90
21298;DHT22;10808;48.010;11.326;2023-04-01T17:50:20;9.60;99.90
21298;DHT22;10808;48.010;11.326;2023-04-01T17:53:32;9.60;99.90
21298;DHT22;10808;48.010;11.326;2023-04-01T17:59:35;9.60;99.90
21298;DHT22;10808;48.010;11.326;2023-04-01T18:02:21;9.50;99.90
21298;DHT22;10808;48.010;11.326;2023-04-01T18:05:14;9.50;99.90
21298;DHT22;10808;48.010;11.326;2023-04-01T18:08:12;9.50;99.90
21298;DHT22;10808;48.010;11.326;2023-04-01T18:17:24;9.50;99.90
21298;DHT22;10808;48.010;11.326;2023-04-01T18:25:45;9.40;99.90
21298;DHT22;10808;48.010;11.326;2023-04-01T18:28:34;9.40;99.90
21298;DHT22;10808;48.010;11.326;2023-04-01T18:34:11;9.40;99.90
21298;DHT22;10808;48.010;11.326;2023-04-01T18:38:54;9.30;99.90
21298;DHT22;10808;48.010;11.326;2023-04-01T18:41:59;9.30;99.90
21298;DHT22;10808;48.010;11.326;2023-04-01T18:44:46;9.30;99.90
21298;DHT22;10808;48.010;11.326;2023-04-01T18:47:44;9.30;99.90
21298;DHT22;10808;48.010;11.326;2023-04-01T18:50:43;9.20;99.90
21298;DHT22;10808;48.010;11.326;2023-04-01T18:56:26;9.20;99.90
21298;DHT22;10808;48.010;11.326;2023-04-01T19:06:56;9.10;99.90
21298;DHT22;10808;48.010;11.326;2023-04-01T19:20:46;9.00;99.90
21298;DHT22;10808;48.010;11.326;2023-04-01T19:23:39;9.00;99.90
21298;DHT22;10808;48.010;11.326;2023-04-01T19:26:22;8.90;99.90
21298;DHT22;10808;48.010;11.326;2023-04-01T19:29:25;8.90;99.90
21298;DHT22;10808;48.010;11.326;2023-04-01T19:32:27;8.90;99.90
21298;DHT22;10808;48.010;11.326;2023-04-01T19:38:26;8.80;99.90
21298;DHT22;10808;48.010;11.326;2023-04-01T19:46:43;8.70;99.90
21298;DHT22;10808;48.010;11.326;2023-04-01T19:52:14;8.60;99.90
21298;DHT22;10808;48.010;11.326;2023-04-01T19:57:47;8.60;99.90
21298;DHT22;10808;48.010;11.326;2023-04-01T20:00:25;8.60;99.90
21298;DHT22;10808;48.010;11.326;2023-04-01T20:03:19;8.50;99.90
21298;DHT22;10808;48.010;11.326;2023-04-01T20:12:17;8.40;99.90
21298;DHT22;10808;48.010;11.326;2023-04-01T20:14:51;8.40;99.90
21298;DHT22;10808;48.010;11.326;2023-04-01T20:25:55;8.30;99.90
21298;DHT22;10808;48.010;11.326;2023-04-01T20:31:37;8.20;99.90
21298;DHT22;10808;48.010;11.326;2023-04-01T20:34:26;8.20;99.90
21298;DHT22;10808;48.010;11.326;2023-04-01T20:45:32;8.20;99.90
21298;DHT22;10808;48.010;11.326;2023-04-01T20:50:48;8.20;99.90
21298;DHT22;10808;48.010;11.326;2023-04-01T20:53:20;8.20;99.90
21298;DHT22;10808;48.010;11.326;2023-04-01T20:59:02;8.10;99.90
21298;DHT22;10808;48.010;11.326;2023-04-01T21:01:49;8.10;99.90
21298;DHT22;10808;48.010;11.326;2023-04-01T21:10:34;8.10;99.90
21298;DHT22;10808;48.010;11.326;2023-04-01T21:13:17;8.20;99.90
21298;DHT22;10808;48.010;11.326;2023-04-01T21:19:14;8.20;99.90
21298;DHT22;10808;48.010;11.326;2023-04-01T21:26:48;8.20;99.90
21298;DHT22;10808;48.010;11.326;2023-04-01T21:35:07;8.20;99.90
21298;DHT22;10808;48.010;11.326;2023-04-01T21:40:56;8.20;99.90
21298;DHT22;10808;48.010;11.326;2023-04-01T21:51:45;8.10;99.90
21298;DHT22;10808;48.010;11.326;2023-04-01T22:03:22;8.20;99.90
21298;DHT22;10808;48.010;11.326;2023-04-01T22:14:35;8.30;99.90
21298;DHT22;10808;48.010;11.326;2023-04-01T22:17:51;8.30;99.90
21298;DHT22;10808;48.010;11.326;2023-04-01T22:22:58;8.30;99.90
21298;DHT22;10808;48.010;11.326;2023-04-01T22:31:56;8.40;99.90
21298;DHT22;10808;48.010;11.326;2023-04-01T22:37:07;8.40;99.90
21298;DHT22;10808;48.010;11.326;2023-04-01T22:39:52;8.40;99.90
21298;DHT22;10808;48.010;11.326;2023-04-01T22:42:45;8.50;99.90
21298;DHT22;10808;48.010;11.326;2023-04-01T22:56:38;8.40;99.90
21298;DHT22;10808;48.010;11.326;2023-04-01T22:59:35;8.40;99.90
21298;DHT22;10808;48.010;11.326;2023-04-01T23:02:13;8.40;99.90
21298;DHT22;10808;48.010;11.326;2023-04-01T23:04:52;8.40;99.90
21298;DHT22;10808;48.010;11.326;2023-04-01T23:13:41;8.40;99.90
21298;DHT22;10808;48.010;11.326;2023-04-01T23:16:10;8.40;99.90
21298;DHT22;10808;48.010;11.326;2023-04-01T23:18:46;8.40;99.90
21298;DHT22;10808;48.010;11.326;2023-04-01T23:24:15;8.40;99.90
21298;DHT22;10808;48.010;11.326;2023-04-01T23:27:15;8.40;99.90
21298;DHT22;10808;48.010;11.326;2023-04-01T23:29:43;8.30;99.90
21298;DHT22;10808;48.010;11.326;2023-04-01T23:32:19;8.40;99.90
21298;DHT22;10808;48.010;11.326;2023-04-01T23:34:53;8.40;99.90
21298;DHT22;10808;48.010;11.326;2023-04-01T23:37:20;8.40;99.90
21298;DHT22;10808;48.010;11.326;2023-04-01T23:39:50;8.40;99.90
21298;DHT22;10808;48.010;11.326;2023-04-01T23:42:33;8.40;99.90
21298;DHT22;10808;48.010;11.326;2023-04-01T23:45:11;8.40;99.90
21298;DHT22;10808;48.010;11.326;2023-04-01T23:47:40;8.40;99.90
21298;DHT22;10808;48.010;11.326;2023-04-01T23:50:19;8.40;99.90
21298;DHT22;10808;48.010;11.326;2023-04-01T23:52:49;8.40;99.90
21298;DHT22;10808;48.010;11.326;2023-04-01T23:55:23;8.40;99.90
